Time;durP1;ratioP1;P1;durP2;ratioP2;P2;SDS_P1;SDS_P2;PMS_P1;PMS_P2;Temp;Humidity;BMP_temperature;BMP_pressure;BME280_temperature;BME280_humidity;BME280_pressure;Samples;Min_cycle;Max_cycle;Signal;HPM_P1;HPM_P2
2022/10/20 00:01:54;;;;;;;4.03;2.10;;;;;;;;;;4954588;28;20411;-83
2022/10/20 00:04:20;;;;;;;5.57;2.00;;;;;;;;;;4922772;28;20488;-83
2022/10/20 00:06:45;;;;;;;4.40;1.95;;;;;;;;;;4944417;28;20057;-82
2022/10/20 00:09:11;;;;;;;4.28;1.98;;;;;;;;;;4927462;28;20052;-82
2022/10/20 00:11:36;;;;;;;3.30;1.98;;;;;;;;;;4921926;28;20040;-84
2022/10/20 00:14:02;;;;;;;5.10;2.40;;;;;;;;;;4923878;28;20036;-82
2022/10/20 00:16:28;;;;;;;4.88;2.60;;;;;;;;;;4921445;28;20558;-82
2022/10/20 00:18:55;;;;;;;4.55;1.88;;;;;;;;;;4928867;28;20047;-83
2022/10/20 00:21:23;;;;;;;5.40;2.17;;;;;;;;;;4951724;28;20573;-83
2022/10/20 00:23:49;;;;;;;7.60;2.45;;;;;;;;;;4932154;28;20044;-84
2022/10/20 00:26:17;;;;;;;4.75;2.30;;;;;;;;;;4921900;28;20040;-84
2022/10/20 00:28:43;;;;;;;4.32;2.10;;;;;;;;;;4922234;28;20046;-84
2022/10/20 00:31:09;;;;;;;4.70;2.13;;;;;;;;;;4928993;28;20031;-84
2022/10/20 00:33:34;;;;;;;5.95;2.20;;;;;;;;;;4920871;28;20438;-84
2022/10/20 00:36:01;;;;;;;5.07;2.55;;;;;;;;;;4952742;28;20040;-84
2022/10/20 00:38:26;;;;;;;4.10;1.87;;;;;;;;;;4936445;28;20384;-83
2022/10/20 00:40:52;;;;;;;4.47;2.10;;;;;;;;;;4929278;28;20034;-84
2022/10/20 00:43:17;;;;;;;3.42;1.60;;;;;;;;;;4923100;28;20046;-84
2022/10/20 00:45:49;;;;;;;4.03;1.90;;;;;;;;;;4937373;28;20035;-84
2022/10/20 00:48:18;;;;;;;3.20;1.60;;;;;;;;;;4928245;28;20463;-84
2022/10/20 00:50:48;;;;;;;3.75;1.85;;;;;;;;;;4934530;28;20038;-84
2022/10/20 00:53:15;;;;;;;4.45;1.90;;;;;;;;;;4928453;28;20061;-83
2022/10/20 00:55:45;;;;;;;3.73;1.80;;;;;;;;;;4935446;28;20472;-84
2022/10/20 00:58:11;;;;;;;3.70;1.58;;;;;;;;;;4924459;28;20742;-85
2022/10/20 01:03:24;;;;;;;3.63;1.60;;;;;;;;;;5772084;23;20057;-85
2022/10/20 01:05:49;;;;;;;3.45;1.42;;;;;;;;;;4975016;28;20048;-84
2022/10/20 01:08:14;;;;;;;3.90;1.50;;;;;;;;;;4952425;28;20042;-84
2022/10/20 01:10:46;;;;;;;2.78;1.38;;;;;;;;;;4965927;28;20033;-84
2022/10/20 01:13:39;;;;;;;4.30;1.70;;;;;;;;;;4972313;28;20045;-84
2022/10/20 01:16:26;;;;;;;3.47;1.55;;;;;;;;;;4987528;28;20034;-83
2022/10/20 01:19:02;;;;;;;;;;;;;;;;;;4970364;28;20065;-83
2022/10/20 01:21:45;;;;;;;4.13;1.67;;;;;;;;;;5006557;28;20395;-83
2022/10/20 01:24:45;;;;;;;4.22;1.60;;;;;;;;;;4986197;28;20053;-83
2022/10/20 01:27:22;;;;;;;3.28;1.20;;;;;;;;;;4872854;28;20396;-83
2022/10/20 01:30:17;;;;;;;4.40;1.52;;;;;;;;;;4975985;28;20108;-83
2022/10/20 01:32:49;;;;;;;3.35;1.30;;;;;;;;;;4948236;28;20616;-83
2022/10/20 01:35:26;;;;;;;3.83;1.30;;;;;;;;;;4982701;28;20416;-83
2022/10/20 01:38:00;;;;;;;4.15;1.70;;;;;;;;;;4991530;28;20400;-83
2022/10/20 01:40:31;;;;;;;3.00;1.58;;;;;;;;;;4973318;28;20439;-83
2022/10/20 01:43:00;;;;;;;4.07;1.60;;;;;;;;;;4992371;28;20033;-84
2022/10/20 01:45:28;;;;;;;2.88;1.52;;;;;;;;;;4991391;28;20033;-84
2022/10/20 01:47:53;;;;;;;3.35;1.45;;;;;;;;;;4975513;28;20038;-83
2022/10/20 01:50:19;;;;;;;5.93;1.73;;;;;;;;;;4974418;28;20088;-83
2022/10/20 01:52:45;;;;;;;4.53;1.70;;;;;;;;;;4986014;28;20516;-83
2022/10/20 01:55:16;;;;;;;4.15;1.70;;;;;;;;;;4976244;28;20033;-81
2022/10/20 01:57:56;;;;;;;4.53;2.13;;;;;;;;;;4971859;28;20041;-83
2022/10/20 02:00:22;;;;;;;3.50;1.58;;;;;;;;;;4991265;28;20566;-84
2022/10/20 02:03:10;;;;;;;3.35;1.40;;;;;;;;;;4988327;28;20045;-83
2022/10/20 02:05:35;;;;;;;4.68;1.67;;;;;;;;;;4953733;28;20058;-83
2022/10/20 02:08:12;;;;;;;3.22;1.50;;;;;;;;;;4982144;28;20550;-85
2022/10/20 02:10:59;;;;;;;4.57;1.80;;;;;;;;;;4962135;28;20089;-83
2022/10/20 02:13:24;;;;;;;3.90;1.60;;;;;;;;;;4968864;28;20043;-84
2022/10/20 02:15:53;;;;;;;5.30;1.90;;;;;;;;;;4954666;28;20852;-83
2022/10/20 02:18:26;;;;;;;3.17;1.45;;;;;;;;;;4966943;28;20035;-83
2022/10/20 02:20:54;;;;;;;3.53;1.55;;;;;;;;;;4954639;28;20035;-83
2022/10/20 02:23:19;;;;;;;3.72;1.67;;;;;;;;;;4950298;28;20034;-83
2022/10/20 02:25:47;;;;;;;3.58;1.45;;;;;;;;;;4953592;28;20579;-83
2022/10/20 02:28:14;;;;;;;3.33;1.42;;;;;;;;;;4956207;28;20138;-83
2022/10/20 02:30:40;;;;;;;4.50;2.38;;;;;;;;;;4955049;28;20034;-83
2022/10/20 02:33:06;;;;;;;4.97;1.70;;;;;;;;;;4962582;28;20045;-83
2022/10/20 02:35:32;;;;;;;2.85;1.50;;;;;;;;;;4951856;28;20470;-84
2022/10/20 02:37:58;;;;;;;2.83;1.52;;;;;;;;;;4954230;28;20043;-83
2022/10/20 02:40:23;;;;;;;3.42;1.60;;;;;;;;;;4955296;28;20037;-83
2022/10/20 02:42:49;;;;;;;4.07;2.03;;;;;;;;;;4964164;28;20031;-82
2022/10/20 02:45:14;;;;;;;3.92;1.98;;;;;;;;;;4970330;28;20046;-83
2022/10/20 02:47:39;;;;;;;4.00;1.60;;;;;;;;;;4950147;28;20035;-82
2022/10/20 02:50:06;;;;;;;4.75;1.67;;;;;;;;;;4964754;28;20034;-83
2022/10/20 02:52:31;;;;;;;3.78;1.70;;;;;;;;;;4954100;28;20512;-83
2022/10/20 02:54:57;;;;;;;3.63;1.60;;;;;;;;;;4949860;28;20042;-82
2022/10/20 02:57:22;;;;;;;3.72;1.50;;;;;;;;;;4969959;28;20035;-82
2022/10/20 02:59:47;;;;;;;3.10;1.40;;;;;;;;;;4955280;28;20389;-82
2022/10/20 03:02:13;;;;;;;3.20;1.48;;;;;;;;;;4965151;28;20050;-82
2022/10/20 03:04:38;;;;;;;3.05;1.38;;;;;;;;;;4963676;28;20046;-83
2022/10/20 03:07:03;;;;;;;4.13;1.55;;;;;;;;;;4953418;28;20034;-83
2022/10/20 03:09:29;;;;;;;2.72;1.48;;;;;;;;;;4953931;28;20043;-82
2022/10/20 03:11:54;;;;;;;3.38;1.60;;;;;;;;;;4966730;28;20043;-83
2022/10/20 03:14:19;;;;;;;3.80;1.70;;;;;;;;;;4954696;28;20591;-83
2022/10/20 03:16:45;;;;;;;3.88;1.30;;;;;;;;;;4952525;28;20100;-82
2022/10/20 03:19:10;;;;;;;3.22;1.60;;;;;;;;;;4968786;28;20038;-82
2022/10/20 03:21:35;;;;;;;3.22;1.55;;;;;;;;;;4962917;28;20030;-85
2022/10/20 03:24:01;;;;;;;5.03;1.73;;;;;;;;;;4946331;28;20122;-83
2022/10/20 03:26:26;;;;;;;8.07;2.08;;;;;;;;;;4952931;28;20117;-83
2022/10/20 03:28:52;;;;;;;4.95;2.13;;;;;;;;;;4978392;28;20035;-83
2022/10/20 03:31:17;;;;;;;3.97;2.00;;;;;;;;;;4960286;28;20555;-83
2022/10/20 03:33:42;;;;;;;4.18;1.85;;;;;;;;;;4951422;28;20564;-83
2022/10/20 03:36:08;;;;;;;4.20;1.85;;;;;;;;;;4946575;28;20057;-83
2022/10/20 03:38:33;;;;;;;4.00;1.63;;;;;;;;;;4969386;28;20121;-84
2022/10/20 03:40:59;;;;;;;3.45;1.80;;;;;;;;;;4961465;28;20062;-83
2022/10/20 03:43:24;;;;;;;3.72;1.83;;;;;;;;;;4970313;28;20504;-84
2022/10/20 03:45:50;;;;;;;7.30;2.17;;;;;;;;;;4967638;28;20109;-84
2022/10/20 03:48:15;;;;;;;3.83;1.83;;;;;;;;;;4953151;28;20038;-84
2022/10/20 03:50:41;;;;;;;4.05;1.83;;;;;;;;;;4953653;28;20481;-84
2022/10/20 03:53:07;;;;;;;3.20;1.70;;;;;;;;;;4956616;28;20069;-84
2022/10/20 03:55:33;;;;;;;3.58;1.65;;;;;;;;;;4942544;28;20031;-84
2022/10/20 03:58:01;;;;;;;4.97;2.28;;;;;;;;;;4953725;28;20045;-84
2022/10/20 04:00:26;;;;;;;4.43;1.70;;;;;;;;;;4954919;28;20042;-84
2022/10/20 04:02:52;;;;;;;5.00;1.95;;;;;;;;;;4952956;28;20493;-83
2022/10/20 04:05:19;;;;;;;4.53;2.00;;;;;;;;;;4969753;28;20060;-82
2022/10/20 04:07:45;;;;;;;5.00;1.92;;;;;;;;;;4955041;28;20117;-82
2022/10/20 04:10:12;;;;;;;3.85;1.90;;;;;;;;;;4953778;28;20038;-83
2022/10/20 04:12:37;;;;;;;4.60;2.10;;;;;;;;;;4954046;28;20038;-84
2022/10/20 04:15:04;;;;;;;4.45;1.73;;;;;;;;;;4968003;28;20034;-84
2022/10/20 04:17:30;;;;;;;4.05;2.17;;;;;;;;;;4943506;28;20046;-84
2022/10/20 04:19:56;;;;;;;4.95;2.05;;;;;;;;;;4961326;28;20031;-83
2022/10/20 04:22:22;;;;;;;6.30;2.60;;;;;;;;;;4952171;28;20045;-83
2022/10/20 04:24:47;;;;;;;4.65;2.25;;;;;;;;;;4953955;28;20041;-83
2022/10/20 04:27:12;;;;;;;4.00;1.80;;;;;;;;;;4976944;28;20038;-83
2022/10/20 04:29:38;;;;;;;4.30;2.30;;;;;;;;;;4962720;28;20038;-83
2022/10/20 04:32:03;;;;;;;5.22;2.30;;;;;;;;;;4964007;28;20500;-83
2022/10/20 04:34:29;;;;;;;4.97;2.50;;;;;;;;;;4953224;28;20048;-85
2022/10/20 04:36:54;;;;;;;5.38;2.20;;;;;;;;;;4951935;28;20035;-83
2022/10/20 04:39:19;;;;;;;4.85;2.60;;;;;;;;;;4969993;28;20097;-84
2022/10/20 04:41:45;;;;;;;6.60;2.50;;;;;;;;;;4962324;28;20083;-84
2022/10/20 04:44:10;;;;;;;5.18;2.60;;;;;;;;;;4949716;28;20397;-85
2022/10/20 04:46:36;;;;;;;5.55;2.40;;;;;;;;;;4947028;28;20035;-83
2022/10/20 04:49:02;;;;;;;6.93;2.58;;;;;;;;;;4947398;28;20242;-85
2022/10/20 04:51:27;;;;;;;5.20;2.47;;;;;;;;;;4952943;28;20465;-82
2022/10/20 04:53:53;;;;;;;5.07;2.30;;;;;;;;;;4933185;28;20062;-84
2022/10/20 04:56:20;;;;;;;4.47;2.35;;;;;;;;;;4949238;28;20038;-84
2022/10/20 04:58:49;;;;;;;4.40;2.23;;;;;;;;;;4960708;28;20031;-84
2022/10/20 05:01:15;;;;;;;6.97;3.20;;;;;;;;;;4964157;28;20377;-83
2022/10/20 05:03:40;;;;;;;6.57;2.60;;;;;;;;;;4945897;28;20049;-84
2022/10/20 05:06:16;;;;;;;5.20;2.67;;;;;;;;;;4948535;28;20038;-83
2022/10/20 05:08:45;;;;;;;5.20;2.67;;;;;;;;;;4968603;28;20041;-85
2022/10/20 05:11:11;;;;;;;6.93;3.00;;;;;;;;;;4945391;28;20062;-84
2022/10/20 05:13:36;;;;;;;6.13;2.70;;;;;;;;;;4962185;28;20568;-83
2022/10/20 05:16:02;;;;;;;5.75;3.08;;;;;;;;;;4963170;28;20061;-84
2022/10/20 05:18:28;;;;;;;6.68;2.90;;;;;;;;;;4962466;28;20034;-82
2022/10/20 05:20:53;;;;;;;5.93;2.92;;;;;;;;;;4954976;28;20096;-79
2022/10/20 05:23:18;;;;;;;6.00;3.20;;;;;;;;;;4962450;28;20035;-80
2022/10/20 05:25:44;;;;;;;6.63;3.03;;;;;;;;;;4966063;28;20031;-79
2022/10/20 05:28:09;;;;;;;5.78;2.90;;;;;;;;;;4964018;28;20500;-79
2022/10/20 05:30:35;;;;;;;5.90;3.10;;;;;;;;;;4962836;28;20137;-80
2022/10/20 05:33:00;;;;;;;8.52;4.00;;;;;;;;;;4962814;28;20035;-79
2022/10/20 05:35:26;;;;;;;8.82;4.30;;;;;;;;;;4961753;28;20046;-86
2022/10/20 05:37:52;;;;;;;9.48;4.70;;;;;;;;;;4964618;28;20030;-89
2022/10/20 05:40:17;;;;;;;8.57;4.63;;;;;;;;;;4952137;28;20128;-83
2022/10/20 05:42:42;;;;;;;7.43;4.10;;;;;;;;;;4951166;28;20034;-83
2022/10/20 05:45:08;;;;;;;7.43;4.05;;;;;;;;;;4947913;28;20049;-82
2022/10/20 05:47:33;;;;;;;9.18;3.70;;;;;;;;;;4968212;28;20043;-84
2022/10/20 05:49:59;;;;;;;6.65;3.40;;;;;;;;;;4951175;28;20102;-82
2022/10/20 05:52:24;;;;;;;7.13;3.83;;;;;;;;;;4968718;28;20397;-82
2022/10/20 05:54:50;;;;;;;8.02;3.55;;;;;;;;;;4966582;28;20585;-84
2022/10/20 05:57:15;;;;;;;6.18;3.55;;;;;;;;;;4951040;28;20045;-84
2022/10/20 05:59:40;;;;;;;9.45;3.63;;;;;;;;;;4959592;28;20038;-84
2022/10/20 06:02:08;;;;;;;7.35;3.80;;;;;;;;;;4950922;28;20133;-84
2022/10/20 06:04:34;;;;;;;8.05;4.07;;;;;;;;;;4951865;28;20537;-84
2022/10/20 06:06:59;;;;;;;11.05;4.78;;;;;;;;;;4950357;28;20101;-84
2022/10/20 06:09:25;;;;;;;6.85;3.40;;;;;;;;;;4971737;28;20085;-84
2022/10/20 06:11:51;;;;;;;6.30;3.70;;;;;;;;;;4970011;28;20034;-84
2022/10/20 06:14:16;;;;;;;7.28;3.40;;;;;;;;;;4955868;28;20158;-84
2022/10/20 06:16:42;;;;;;;7.47;3.75;;;;;;;;;;4964926;28;20389;-84
2022/10/20 06:19:08;;;;;;;5.97;3.63;;;;;;;;;;4965459;28;20034;-84
2022/10/20 06:21:34;;;;;;;7.32;3.65;;;;;;;;;;4954106;28;20034;-83
2022/10/20 06:24:02;;;;;;;6.10;3.50;;;;;;;;;;4949050;28;20050;-85
2022/10/20 06:26:31;;;;;;;10.27;5.13;;;;;;;;;;4955382;28;20486;-83
2022/10/20 06:28:57;;;;;;;8.35;3.90;;;;;;;;;;4955209;28;20034;-83
2022/10/20 06:31:26;;;;;;;6.75;3.65;;;;;;;;;;4963103;28;20030;-83
2022/10/20 06:33:52;;;;;;;6.75;3.60;;;;;;;;;;4966263;28;20105;-85
2022/10/20 06:36:19;;;;;;;7.10;3.63;;;;;;;;;;4947714;28;20093;-85
2022/10/20 06:38:45;;;;;;;7.30;3.50;;;;;;;;;;4955784;28;20062;-85
2022/10/20 06:41:15;;;;;;;6.40;3.50;;;;;;;;;;4957326;28;20031;-85
2022/10/20 06:43:41;;;;;;;8.13;3.83;;;;;;;;;;4952679;28;20030;-83
2022/10/20 06:46:10;;;;;;;8.05;3.58;;;;;;;;;;4956159;28;20509;-84
2022/10/20 06:48:35;;;;;;;14.82;7.35;;;;;;;;;;4958404;28;20045;-83
2022/10/20 06:51:03;;;;;;;21.55;10.15;;;;;;;;;;4945651;28;20449;-84
2022/10/20 06:53:29;;;;;;;9.23;4.55;;;;;;;;;;4937845;28;20560;-84
2022/10/20 06:56:00;;;;;;;7.80;3.92;;;;;;;;;;4947836;28;20508;-85
2022/10/20 06:58:27;;;;;;;6.45;3.75;;;;;;;;;;4933511;28;20045;-84
2022/10/20 07:00:58;;;;;;;9.00;3.65;;;;;;;;;;4956380;28;20500;-84
2022/10/20 07:03:24;;;;;;;6.95;3.42;;;;;;;;;;4961050;28;20045;-81
2022/10/20 07:05:49;;;;;;;7.07;3.38;;;;;;;;;;4956375;28;20041;-82
2022/10/20 07:08:15;;;;;;;6.93;3.53;;;;;;;;;;4948474;28;20089;-85
2022/10/20 07:10:40;;;;;;;8.88;4.20;;;;;;;;;;4963173;28;20030;-86
2022/10/20 07:13:05;;;;;;;7.43;3.65;;;;;;;;;;4942075;28;20133;-86
2022/10/20 07:15:31;;;;;;;7.45;3.30;;;;;;;;;;4952495;28;20085;-85
2022/10/20 07:17:56;;;;;;;7.28;3.90;;;;;;;;;;4963361;28;20034;-87
2022/10/20 07:20:21;;;;;;;6.32;3.25;;;;;;;;;;4952419;28;20362;-83
2022/10/20 07:22:47;;;;;;;7.22;3.20;;;;;;;;;;4955156;28;20046;-84
2022/10/20 07:25:21;;;;;;;8.02;3.50;;;;;;;;;;4970219;28;20222;-85
2022/10/20 07:27:47;;;;;;;7.20;3.60;;;;;;;;;;4954952;28;20474;-86
2022/10/20 07:30:12;;;;;;;6.65;3.50;;;;;;;;;;4980459;28;20034;-85
2022/10/20 07:32:38;;;;;;;8.55;4.63;;;;;;;;;;4981494;28;20045;-85
2022/10/20 07:35:03;;;;;;;6.75;3.58;;;;;;;;;;4952938;28;20045;-83
2022/10/20 07:37:29;;;;;;;6.05;3.40;;;;;;;;;;4953348;28;20029;-84
2022/10/20 07:39:54;;;;;;;7.45;3.45;;;;;;;;;;4960911;28;20046;-84
2022/10/20 07:42:19;;;;;;;6.38;2.92;;;;;;;;;;4977851;28;20042;-83
2022/10/20 07:44:45;;;;;;;5.90;3.30;;;;;;;;;;4954010;28;20038;-83
2022/10/20 07:47:10;;;;;;;6.07;2.75;;;;;;;;;;4951556;28;20037;-82
2022/10/20 07:49:35;;;;;;;6.68;3.22;;;;;;;;;;4946893;28;20456;-83
2022/10/20 07:52:01;;;;;;;5.50;2.85;;;;;;;;;;4970137;28;20049;-82
2022/10/20 07:54:26;;;;;;;6.32;3.15;;;;;;;;;;4952067;28;20521;-83
2022/10/20 07:56:52;;;;;;;5.28;2.78;;;;;;;;;;4978197;28;20393;-83
2022/10/20 07:59:17;;;;;;;5.63;3.03;;;;;;;;;;4969391;28;20069;-83
2022/10/20 08:01:43;;;;;;;5.55;2.63;;;;;;;;;;4945708;28;20023;-82
2022/10/20 08:04:08;;;;;;;5.53;2.67;;;;;;;;;;4952118;28;20456;-82
2022/10/20 08:06:34;;;;;;;6.80;2.90;;;;;;;;;;4945917;28;20093;-83
2022/10/20 08:08:59;;;;;;;5.30;2.72;;;;;;;;;;4962090;28;20038;-83
2022/10/20 08:11:25;;;;;;;4.93;2.60;;;;;;;;;;4971801;28;20030;-83
2022/10/20 08:13:50;;;;;;;5.55;2.70;;;;;;;;;;4968563;28;20395;-84
2022/10/20 08:16:17;;;;;;;5.22;2.80;;;;;;;;;;4946117;28;20038;-83
2022/10/20 08:18:42;;;;;;;5.18;2.75;;;;;;;;;;4956550;28;20610;-82
2022/10/20 08:21:18;;;;;;;5.35;2.90;;;;;;;;;;4968196;28;20046;-83
2022/10/20 08:23:46;;;;;;;5.32;2.85;;;;;;;;;;4965462;28;20501;-83
2022/10/20 08:26:15;;;;;;;5.10;2.72;;;;;;;;;;4967817;28;20093;-83
2022/10/20 08:28:41;;;;;;;6.28;2.75;;;;;;;;;;4951743;28;20047;-82
2022/10/20 08:31:06;;;;;;;5.13;2.80;;;;;;;;;;4961408;28;20616;-83
2022/10/20 08:33:33;;;;;;;4.90;2.72;;;;;;;;;;4968262;28;20042;-85
2022/10/20 08:36:06;;;;;;;5.80;2.70;;;;;;;;;;4950968;28;20042;-81
2022/10/20 08:38:32;;;;;;;6.68;3.55;;;;;;;;;;4951915;28;20506;-82
2022/10/20 08:40:59;;;;;;;7.47;2.70;;;;;;;;;;4976383;28;20030;-83
2022/10/20 08:43:25;;;;;;;5.68;2.50;;;;;;;;;;4944930;28;20161;-83
2022/10/20 08:45:50;;;;;;;4.55;2.53;;;;;;;;;;4961319;28;20105;-83
2022/10/20 08:48:27;;;;;;;4.60;2.50;;;;;;;;;;4943604;28;20042;-83
2022/10/20 08:50:52;;;;;;;6.63;2.72;;;;;;;;;;4954891;28;20493;-82
2022/10/20 08:53:20;;;;;;;5.28;2.60;;;;;;;;;;4944545;28;20041;-82
2022/10/20 08:55:45;;;;;;;5.35;2.25;;;;;;;;;;4950354;28;20786;-82
2022/10/20 08:58:13;;;;;;;4.80;2.30;;;;;;;;;;4975499;28;20043;-82
2022/10/20 09:00:39;;;;;;;5.25;2.40;;;;;;;;;;4966162;28;20057;-82
2022/10/20 09:03:16;;;;;;;4.65;2.45;;;;;;;;;;4965345;28;20792;-82
2022/10/20 09:05:44;;;;;;;6.78;2.65;;;;;;;;;;4946251;28;20041;-82
2022/10/20 09:08:09;;;;;;;4.47;2.85;;;;;;;;;;4981256;28;20034;-81
2022/10/20 09:10:37;;;;;;;5.40;2.80;;;;;;;;;;4968218;28;20049;-81
2022/10/20 09:13:10;;;;;;;5.28;2.78;;;;;;;;;;4948933;28;20603;-82
2022/10/20 09:15:36;;;;;;;4.88;2.50;;;;;;;;;;4951791;28;20035;-82
2022/10/20 09:18:08;;;;;;;4.97;2.58;;;;;;;;;;4967134;28;20513;-84
2022/10/20 09:20:37;;;;;;;4.93;2.58;;;;;;;;;;4949805;28;20062;-82
2022/10/20 09:23:03;;;;;;;4.85;2.65;;;;;;;;;;4966805;28;20092;-82
2022/10/20 09:25:28;;;;;;;5.82;2.50;;;;;;;;;;4945304;28;20038;-84
2022/10/20 09:27:58;;;;;;;4.88;2.50;;;;;;;;;;4953012;28;20062;-82
2022/10/20 09:30:34;;;;;;;4.80;2.85;;;;;;;;;;4946469;28;20042;-81
2022/10/20 09:33:18;;;;;;;5.80;2.37;;;;;;;;;;4966333;28;20460;-84
2022/10/20 09:35:46;;;;;;;4.35;2.30;;;;;;;;;;4943257;28;20336;-84
2022/10/20 09:38:31;;;;;;;4.97;2.50;;;;;;;;;;4943241;28;20049;-83
2022/10/20 09:41:20;;;;;;;5.95;2.70;;;;;;;;;;4968721;28;20047;-84
2022/10/20 09:43:54;;;;;;;4.82;2.35;;;;;;;;;;4969169;28;20502;-86
2022/10/20 09:46:22;;;;;;;4.97;2.55;;;;;;;;;;4947164;28;20034;-84
2022/10/20 09:48:49;;;;;;;7.72;2.42;;;;;;;;;;4954652;28;20088;-83
2022/10/20 09:51:19;;;;;;;5.78;2.83;;;;;;;;;;4956768;28;20517;-84
2022/10/20 09:54:09;;;;;;;5.82;2.30;;;;;;;;;;4952143;28;20031;-83
2022/10/20 09:56:36;;;;;;;5.50;2.80;;;;;;;;;;4964110;28;20038;-84
2022/10/20 09:59:05;;;;;;;7.78;4.05;;;;;;;;;;4956743;28;20038;-84
2022/10/20 10:01:30;;;;;;;5.03;2.17;;;;;;;;;;4972013;28;20054;-84
2022/10/20 10:04:00;;;;;;;5.43;2.25;;;;;;;;;;4959600;28;20149;-84
2022/10/20 10:06:31;;;;;;;5.85;2.35;;;;;;;;;;4965619;28;20116;-83
2022/10/20 10:09:01;;;;;;;5.32;2.47;;;;;;;;;;4970372;28;20041;-84
2022/10/20 10:11:34;;;;;;;4.45;2.20;;;;;;;;;;4955331;28;20046;-84
2022/10/20 10:14:00;;;;;;;4.25;2.17;;;;;;;;;;4962018;28;20110;-84
2022/10/20 10:16:26;;;;;;;4.18;2.13;;;;;;;;;;4954555;28;20039;-86
2022/10/20 10:19:04;;;;;;;3.88;2.00;;;;;;;;;;4950045;28;20065;-82
2022/10/20 10:21:45;;;;;;;5.20;1.98;;;;;;;;;;4962617;28;20401;-86
2022/10/20 10:24:32;;;;;;;3.88;1.90;;;;;;;;;;4946793;28;20046;-84
2022/10/20 10:26:58;;;;;;;5.00;2.07;;;;;;;;;;4968733;28;20045;-84
2022/10/20 10:29:27;;;;;;;3.95;1.85;;;;;;;;;;4948448;28;20657;-83
2022/10/20 10:31:57;;;;;;;5.35;1.90;;;;;;;;;;4966918;28;20077;-85
2022/10/20 10:34:36;;;;;;;3.90;1.98;;;;;;;;;;4961684;28;20042;-83
2022/10/20 10:37:02;;;;;;;3.63;1.90;;;;;;;;;;4948801;28;20096;-84
2022/10/20 10:39:28;;;;;;;3.50;1.65;;;;;;;;;;4950611;28;20050;-83
2022/10/20 10:42:03;;;;;;;4.10;1.75;;;;;;;;;;4955537;28;20038;-85
2022/10/20 10:44:32;;;;;;;3.50;1.80;;;;;;;;;;4983438;28;20129;-85
2022/10/20 10:47:18;;;;;;;4.47;1.65;;;;;;;;;;4963203;28;20039;-86
2022/10/20 10:49:56;;;;;;;4.03;1.70;;;;;;;;;;4969391;28;20417;-80
2022/10/20 10:52:42;;;;;;;3.45;1.70;;;;;;;;;;4947442;28;20278;-81
2022/10/20 10:55:14;;;;;;;3.33;1.52;;;;;;;;;;4945324;28;20117;-81
2022/10/20 10:58:01;;;;;;;3.67;1.60;;;;;;;;;;4964109;28;20119;-83
2022/10/20 11:00:45;;;;;;;6.53;1.88;;;;;;;;;;4960161;28;20065;-83
2022/10/20 11:03:10;;;;;;;4.03;1.50;;;;;;;;;;4960444;28;20061;-82
2022/10/20 11:06:00;;;;;;;3.55;1.40;;;;;;;;;;4976152;28;20367;-82
2022/10/20 11:08:41;;;;;;;3.45;1.58;;;;;;;;;;4967401;28;20046;-84
2022/10/20 11:11:35;;;;;;;3.05;1.27;;;;;;;;;;4959756;28;20042;-83
2022/10/20 11:14:10;;;;;;;2.33;1.00;;;;;;;;;;4977140;28;20050;-84
2022/10/20 11:16:42;;;;;;;2.78;1.33;;;;;;;;;;4977694;28;20568;-83
2022/10/20 11:19:26;;;;;;;3.28;1.33;;;;;;;;;;4948484;28;21099;-83
2022/10/20 11:21:54;;;;;;;3.45;1.52;;;;;;;;;;4981007;28;20034;-83
2022/10/20 11:24:31;;;;;;;4.25;1.52;;;;;;;;;;4980315;28;20097;-84
2022/10/20 11:27:09;;;;;;;4.15;1.58;;;;;;;;;;4962640;28;20081;-85
2022/10/20 11:29:40;;;;;;;4.22;1.33;;;;;;;;;;4968778;28;20552;-84
2022/10/20 11:32:13;;;;;;;3.05;1.30;;;;;;;;;;4978640;28;20035;-84
2022/10/20 11:34:52;;;;;;;2.75;0.95;;;;;;;;;;4954740;28;20046;-86
2022/10/20 11:37:30;;;;;;;3.20;1.10;;;;;;;;;;4967736;28;20065;-87
2022/10/20 11:40:08;;;;;;;2.60;1.10;;;;;;;;;;4973890;28;20060;-83
2022/10/20 11:42:42;;;;;;;2.45;1.02;;;;;;;;;;4977331;28;20039;-85
2022/10/20 11:45:28;;;;;;;2.17;0.88;;;;;;;;;;4944445;28;20117;-82
2022/10/20 11:48:00;;;;;;;2.30;0.90;;;;;;;;;;4981123;28;20080;-84
2022/10/20 11:50:26;;;;;;;4.05;1.35;;;;;;;;;;4963184;28;20200;-88
2022/10/20 11:53:00;;;;;;;2.40;1.10;;;;;;;;;;4946177;28;20081;-84
2022/10/20 11:55:37;;;;;;;2.00;0.90;;;;;;;;;;4964040;28;20474;-86
2022/10/20 11:58:21;;;;;;;2.45;1.08;;;;;;;;;;4974334;28;20064;-86
2022/10/20 12:01:00;;;;;;;2.38;1.10;;;;;;;;;;4960493;28;20100;-84
2022/10/20 12:03:42;;;;;;;4.53;1.60;;;;;;;;;;4970279;28;20054;-85
2022/10/20 12:06:30;;;;;;;3.40;1.13;;;;;;;;;;4967284;28;20399;-82
2022/10/20 12:09:12;;;;;;;3.20;1.35;;;;;;;;;;4962471;28;20039;-84
2022/10/20 12:11:40;;;;;;;3.20;1.30;;;;;;;;;;4951178;28;20050;-85
2022/10/20 12:14:07;;;;;;;2.75;1.20;;;;;;;;;;4962199;28;20050;-85
2022/10/20 12:16:50;;;;;;;5.95;2.10;;;;;;;;;;4978707;28;20358;-85
2022/10/20 12:19:37;;;;;;;3.42;1.40;;;;;;;;;;4978972;28;20069;-85
2022/10/20 12:22:14;;;;;;;4.35;1.45;;;;;;;;;;4963168;28;20034;-83
2022/10/20 12:24:49;;;;;;;3.50;1.35;;;;;;;;;;4960403;28;20117;-83
2022/10/20 12:27:18;;;;;;;8.00;2.70;;;;;;;;;;4977374;28;20053;-82
2022/10/20 12:29:47;;;;;;;3.13;1.58;;;;;;;;;;4978822;28;20056;-84
2022/10/20 12:32:24;;;;;;;4.18;1.50;;;;;;;;;;4953917;28;20042;-83
2022/10/20 12:34:53;;;;;;;2.63;1.30;;;;;;;;;;4983844;28;20042;-85
2022/10/20 12:37:24;;;;;;;2.95;1.33;;;;;;;;;;4955066;28;20497;-86
2022/10/20 12:39:54;;;;;;;4.40;1.33;;;;;;;;;;4958345;28;20396;-84
2022/10/20 12:42:22;;;;;;;3.13;1.40;;;;;;;;;;4963941;28;20041;-84
2022/10/20 12:44:47;;;;;;;;;;;;;;;;;;4953021;28;20114;-83
2022/10/20 12:47:26;;;;;;;3.33;1.48;;;;;;;;;;4947582;28;20123;-85
2022/10/20 12:50:02;;;;;;;4.07;1.40;;;;;;;;;;4961719;28;20034;-83
2022/10/20 12:52:31;;;;;;;2.83;1.33;;;;;;;;;;4952239;28;20070;-83
2022/10/20 12:55:04;;;;;;;2.70;1.30;;;;;;;;;;4943971;28;20039;-83
2022/10/20 12:57:40;;;;;;;3.95;2.03;;;;;;;;;;4951930;28;20037;-83
2022/10/20 13:00:07;;;;;;;4.03;1.60;;;;;;;;;;4948849;28;20053;-84
2022/10/20 13:02:53;;;;;;;4.25;1.50;;;;;;;;;;4969693;28;20035;-83
2022/10/20 13:05:18;;;;;;;5.28;2.40;;;;;;;;;;4962196;28;20047;-83
2022/10/20 13:07:47;;;;;;;3.55;1.42;;;;;;;;;;4978676;28;20374;-84
2022/10/20 13:10:32;;;;;;;3.88;1.45;;;;;;;;;;4978579;28;20061;-83
2022/10/20 13:13:00;;;;;;;4.47;1.65;;;;;;;;;;4953466;28;20079;-85
2022/10/20 13:15:29;;;;;;;3.25;1.50;;;;;;;;;;4977331;28;20038;-82
2022/10/20 13:17:57;;;;;;;2.38;1.20;;;;;;;;;;4981345;28;20043;-84
2022/10/20 13:20:38;;;;;;;3.15;1.40;;;;;;;;;;4955837;28;20049;-88
2022/10/20 13:23:04;;;;;;;2.47;1.15;;;;;;;;;;4956928;28;20070;-84
2022/10/20 13:25:44;;;;;;;3.67;1.17;;;;;;;;;;4971493;28;20064;-80
2022/10/20 13:28:12;;;;;;;3.03;1.35;;;;;;;;;;4973397;28;20074;-84
2022/10/20 13:31:19;;;;;;;3.55;1.40;;;;;;;;;;4981636;28;20240;-85
2022/10/20 13:33:47;;;;;;;3.25;1.38;;;;;;;;;;4964099;28;20039;-84
2022/10/20 13:36:15;;;;;;;6.55;3.00;;;;;;;;;;4978256;28;20503;-84
2022/10/20 13:38:49;;;;;;;2.67;1.35;;;;;;;;;;4977644;28;20497;-84
2022/10/20 13:41:50;;;;;;;2.78;1.05;;;;;;;;;;4972781;28;20045;-84
2022/10/20 13:44:52;;;;;;;3.35;1.60;;;;;;;;;;4961599;28;20046;-85
2022/10/20 13:47:35;;;;;;;3.03;1.38;;;;;;;;;;4970818;28;20062;-83
2022/10/20 13:50:06;;;;;;;3.63;1.58;;;;;;;;;;4955546;28;20039;-84
2022/10/20 13:52:34;;;;;;;3.13;1.30;;;;;;;;;;4955350;28;20034;-85
2022/10/20 13:55:00;;;;;;;2.70;1.27;;;;;;;;;;4958893;28;20129;-84
2022/10/20 13:57:32;;;;;;;3.22;1.30;;;;;;;;;;4955982;28;20034;-85
2022/10/20 14:00:15;;;;;;;3.75;1.40;;;;;;;;;;4952662;28;20033;-85
2022/10/20 14:02:55;;;;;;;2.78;1.25;;;;;;;;;;4953267;28;20088;-83
2022/10/20 14:05:21;;;;;;;3.28;1.50;;;;;;;;;;4971734;28;20055;-83
2022/10/20 14:07:46;;;;;;;2.22;1.10;;;;;;;;;;4965404;28;20376;-87
2022/10/20 14:10:52;;;;;;;4.15;1.60;;;;;;;;;;4954291;28;20038;-83
2022/10/20 14:13:20;;;;;;;3.30;1.20;;;;;;;;;;4928902;28;20065;-85
2022/10/20 14:15:48;;;;;;;2.80;1.20;;;;;;;;;;4955818;28;20609;-85
2022/10/20 14:18:28;;;;;;;3.08;1.27;;;;;;;;;;4948252;28;20118;-85
2022/10/20 14:21:04;;;;;;;3.58;1.50;;;;;;;;;;4954636;28;20044;-83
2022/10/20 14:23:34;;;;;;;2.30;1.15;;;;;;;;;;4949243;28;20049;-86
2022/10/20 14:26:03;;;;;;;2.92;1.30;;;;;;;;;;4952615;28;20038;-86
2022/10/20 14:28:31;;;;;;;3.05;1.38;;;;;;;;;;4945993;28;20047;-89
2022/10/20 14:30:59;;;;;;;4.63;1.45;;;;;;;;;;4948873;28;20034;-85
2022/10/20 14:33:25;;;;;;;4.05;1.60;;;;;;;;;;4956234;28;20031;-86
2022/10/20 14:35:54;;;;;;;4.40;1.70;;;;;;;;;;4948813;28;20109;-86
2022/10/20 14:38:36;;;;;;;2.97;1.40;;;;;;;;;;4945874;28;20122;-86
2022/10/20 14:41:02;;;;;;;3.55;1.35;;;;;;;;;;4954271;28;20482;-86
2022/10/20 14:43:38;;;;;;;3.83;1.10;;;;;;;;;;4968451;28;20129;-85
2022/10/20 14:46:05;;;;;;;3.30;1.35;;;;;;;;;;4974505;28;20440;-85
2022/10/20 14:48:33;;;;;;;2.78;1.38;;;;;;;;;;4947441;28;20039;-85
2022/10/20 14:50:58;;;;;;;3.88;1.27;;;;;;;;;;4978589;28;20073;-86
2022/10/20 14:53:30;;;;;;;4.75;1.60;;;;;;;;;;4947167;28;20042;-85
2022/10/20 14:55:58;;;;;;;3.75;1.70;;;;;;;;;;4945969;28;20039;-86
2022/10/20 14:58:36;;;;;;;2.88;1.45;;;;;;;;;;4946330;28;20041;-84
2022/10/20 15:01:22;;;;;;;2.72;1.38;;;;;;;;;;4961048;28;20031;-84
2022/10/20 15:04:22;;;;;;;3.65;1.40;;;;;;;;;;4970626;28;20039;-84